Time;durP1;ratioP1;P1;durP2;ratioP2;P2;SDS_P1;SDS_P2;PMS_P1;PMS_P2;Temp;Humidity;BMP_temperature;BMP_pressure;BME280_temperature;BME280_humidity;BME280_pressure;Samples;Min_cycle;Max_cycle;Signal;HPM_P1;HPM_P2
2022/10/17 00:00:39;;;;;;;2.77;2.10;;;17.20;99.90;;;;;;935414;151;27900;-82
2022/10/17 00:03:06;;;;;;;2.60;2.40;;;17.20;99.90;;;;;;938315;149;27341;-81
2022/10/17 00:05:32;;;;;;;2.25;2.05;;;17.20;99.90;;;;;;935816;149;27312;-82
2022/10/17 00:07:59;;;;;;;4.30;2.20;;;17.10;99.90;;;;;;935831;151;27348;-81
2022/10/17 00:10:25;;;;;;;3.62;2.62;;;17.10;99.90;;;;;;935030;151;27353;-82
2022/10/17 00:12:52;;;;;;;2.45;2.22;;;17.10;99.90;;;;;;935614;148;27351;-82
2022/10/17 00:15:19;;;;;;;10.80;2.55;;;17.10;99.90;;;;;;936356;149;27328;-82
2022/10/17 00:17:45;;;;;;;4.05;1.98;;;17.10;99.90;;;;;;934348;150;27449;-82
2022/10/17 00:20:12;;;;;;;2.30;2.10;;;17.10;99.90;;;;;;930980;149;27426;-81
2022/10/17 00:22:38;;;;;;;3.00;2.12;;;17.10;99.90;;;;;;930187;152;27371;-82
2022/10/17 00:25:05;;;;;;;2.77;2.00;;;17.10;99.90;;;;;;930084;152;27338;-82
2022/10/17 00:27:31;;;;;;;1.90;1.80;;;17.10;99.90;;;;;;931010;149;27852;-82
2022/10/17 00:29:58;;;;;;;2.10;1.90;;;17.10;99.90;;;;;;930206;151;27257;-82
2022/10/17 00:32:25;;;;;;;3.17;2.05;;;17.10;99.90;;;;;;930185;150;27294;-82
2022/10/17 00:34:51;;;;;;;3.77;1.98;;;17.10;99.90;;;;;;931434;150;27343;-82
2022/10/17 00:37:18;;;;;;;2.10;1.75;;;17.00;99.90;;;;;;933321;149;27475;-80
2022/10/17 00:39:44;;;;;;;2.00;1.90;;;17.00;99.90;;;;;;928998;149;27432;-82
2022/10/17 00:42:14;;;;;;;1.95;1.85;;;17.00;99.90;;;;;;929994;152;27303;-82
2022/10/17 00:44:40;;;;;;;3.98;2.22;;;17.00;99.90;;;;;;931141;151;27333;-82
2022/10/17 00:47:10;;;;;;;2.05;1.95;;;17.00;99.90;;;;;;929845;150;27384;-81
2022/10/17 00:49:36;;;;;;;1.72;1.62;;;17.00;99.90;;;;;;930267;149;27787;-82
2022/10/17 00:52:03;;;;;;;12.55;3.67;;;17.00;99.90;;;;;;930397;149;27328;-82
2022/10/17 00:54:35;;;;;;;1.90;1.70;;;17.00;99.90;;;;;;930871;149;27438;-81
2022/10/17 00:57:02;;;;;;;4.60;2.00;;;16.90;99.90;;;;;;929600;152;27716;-81
2022/10/17 00:59:28;;;;;;;2.65;1.80;;;16.90;99.90;;;;;;930471;151;27440;-83
2022/10/17 01:02:01;;;;;;;2.67;1.87;;;16.90;99.90;;;;;;932993;149;27364;-82
2022/10/17 01:04:28;;;;;;;3.00;2.00;;;16.90;99.90;;;;;;931187;149;27339;-82
2022/10/17 01:06:54;;;;;;;2.45;2.00;;;16.90;99.90;;;;;;929263;152;27342;-82
2022/10/17 01:09:21;;;;;;;2.80;2.02;;;16.90;99.90;;;;;;931273;151;27340;-81
2022/10/17 01:12:09;;;;;;;2.77;1.90;;;16.90;99.90;;;;;;930389;152;27481;-82
2022/10/17 01:14:44;;;;;;;2.98;2.22;;;16.90;99.90;;;;;;931203;152;27384;-82
2022/10/17 01:17:22;;;;;;;3.42;2.20;;;16.90;99.90;;;;;;930783;149;27273;-82
2022/10/17 01:20:11;;;;;;;3.27;2.02;;;16.90;99.90;;;;;;925292;150;27355;-82
2022/10/17 01:22:49;;;;;;;2.85;2.00;;;16.90;99.90;;;;;;932329;149;27281;-82
2022/10/17 01:25:25;;;;;;;2.40;2.20;;;16.90;99.90;;;;;;930402;152;27277;-81
2022/10/17 01:28:15;;;;;;;2.00;1.80;;;16.90;99.90;;;;;;931677;149;27370;-82
2022/10/17 01:30:51;;;;;;;3.08;1.85;;;16.80;99.90;;;;;;929375;152;27429;-82
2022/10/17 01:33:17;;;;;;;3.02;1.95;;;16.80;99.90;;;;;;931546;149;27325;-82
2022/10/17 01:35:47;;;;;;;1.87;1.77;;;16.80;99.90;;;;;;929773;149;27289;-82
2022/10/17 01:38:32;;;;;;;2.02;1.85;;;16.80;99.90;;;;;;931675;151;27320;-82
2022/10/17 01:41:10;;;;;;;3.95;2.00;;;16.80;99.90;;;;;;931087;152;27331;-81
2022/10/17 01:43:39;;;;;;;2.20;2.00;;;16.80;99.90;;;;;;932739;151;27392;-82
2022/10/17 01:46:09;;;;;;;3.87;2.08;;;16.70;99.90;;;;;;931676;150;27367;-82
2022/10/17 01:48:35;;;;;;;2.22;2.10;;;16.80;99.90;;;;;;933008;151;27339;-82
2022/10/17 01:51:20;;;;;;;3.15;2.00;;;16.80;99.90;;;;;;931536;151;27335;-80
2022/10/17 01:53:53;;;;;;;2.12;1.92;;;16.70;99.90;;;;;;930481;151;27384;-82
2022/10/17 01:56:19;;;;;;;3.95;2.00;;;16.80;99.90;;;;;;930290;151;27381;-82
2022/10/17 01:58:46;;;;;;;2.35;2.02;;;16.80;99.90;;;;;;930482;152;27329;-82
2022/10/17 02:01:12;;;;;;;4.80;2.52;;;16.70;99.90;;;;;;920858;149;27300;-82
2022/10/17 02:03:39;;;;;;;3.00;1.80;;;16.80;99.90;;;;;;930835;152;27404;-81
2022/10/17 02:06:06;;;;;;;4.80;2.17;;;16.80;99.90;;;;;;932023;152;27338;-80
2022/10/17 02:08:44;;;;;;;2.67;2.05;;;16.80;99.90;;;;;;929845;149;27773;-82
2022/10/17 02:11:11;;;;;;;2.92;1.75;;;16.80;99.90;;;;;;931512;149;27308;-82
2022/10/17 02:13:46;;;;;;;2.00;1.80;;;16.80;99.90;;;;;;931054;151;27416;-82
2022/10/17 02:16:15;;;;;;;3.30;1.92;;;16.80;99.90;;;;;;931734;152;27416;-80
2022/10/17 02:18:51;;;;;;;2.70;1.80;;;16.80;99.90;;;;;;931775;151;27465;-82
2022/10/17 02:21:26;;;;;;;1.70;1.60;;;16.80;99.90;;;;;;935346;149;27864;-82
2022/10/17 02:24:11;;;;;;;2.17;2.00;;;16.80;99.90;;;;;;934325;151;27360;-82
2022/10/17 02:26:41;;;;;;;2.05;1.95;;;16.80;99.90;;;;;;936967;148;27945;-82
2022/10/17 02:29:10;;;;;;;2.67;1.87;;;16.80;99.90;;;;;;935872;151;27375;-81
2022/10/17 02:31:45;;;;;;;2.30;1.72;;;16.80;99.90;;;;;;934197;149;27465;-82
2022/10/17 02:34:14;;;;;;;2.40;2.05;;;16.80;99.90;;;;;;938082;148;27416;-80
2022/10/17 02:36:44;;;;;;;3.52;2.20;;;16.80;99.90;;;;;;934663;149;27331;-80
2022/10/17 02:39:10;;;;;;;3.00;2.17;;;16.70;99.90;;;;;;933688;148;27463;-79
2022/10/17 02:41:37;;;;;;;2.65;2.30;;;16.70;99.90;;;;;;935656;151;28635;-79
2022/10/17 02:44:04;;;;;;;2.25;2.10;;;16.70;99.90;;;;;;934646;148;27362;-79
2022/10/17 02:46:30;;;;;;;2.72;1.90;;;16.70;99.90;;;;;;936607;149;27268;-79
2022/10/17 02:49:08;;;;;;;2.67;2.20;;;16.70;99.90;;;;;;935960;151;27375;-79
2022/10/17 02:51:35;;;;;;;2.70;2.30;;;16.70;99.90;;;;;;934793;148;27351;-79
2022/10/17 02:54:20;;;;;;;3.77;2.17;;;16.70;99.90;;;;;;934115;151;27339;-79
2022/10/17 02:56:55;;;;;;;5.80;2.55;;;16.70;99.90;;;;;;935599;148;27311;-79
2022/10/17 02:59:21;;;;;;;3.83;2.27;;;16.70;99.90;;;;;;936973;150;27325;-79
2022/10/17 03:01:48;;;;;;;2.30;2.10;;;16.70;99.90;;;;;;937263;150;27653;-78
2022/10/17 03:04:14;;;;;;;2.50;2.30;;;16.60;99.90;;;;;;935591;151;27366;-78
2022/10/17 03:06:41;;;;;;;4.10;2.37;;;16.60;99.90;;;;;;934591;149;27325;-78
2022/10/17 03:09:08;;;;;;;2.35;2.10;;;16.60;99.90;;;;;;936002;148;27336;-78
2022/10/17 03:11:34;;;;;;;5.92;2.52;;;16.60;99.90;;;;;;933754;149;27314;-78
2022/10/17 03:14:01;;;;;;;4.95;2.83;;;16.60;99.90;;;;;;937105;149;27363;-80
2022/10/17 03:16:27;;;;;;;3.77;1.70;;;16.60;99.90;;;;;;935553;151;27511;-78
2022/10/17 03:18:54;;;;;;;2.27;2.08;;;16.60;99.90;;;;;;934666;148;27321;-78
2022/10/17 03:21:21;;;;;;;2.65;2.12;;;16.60;99.90;;;;;;935515;149;27377;-78
2022/10/17 03:23:47;;;;;;;2.83;2.27;;;16.50;99.90;;;;;;935282;151;27310;-79
2022/10/17 03:26:14;;;;;;;4.87;2.10;;;16.50;99.90;;;;;;936704;148;27460;-80
2022/10/17 03:28:40;;;;;;;2.50;2.30;;;16.50;99.90;;;;;;934930;148;27420;-78
2022/10/17 03:31:10;;;;;;;3.70;2.15;;;16.50;99.90;;;;;;936887;149;27252;-79
2022/10/17 03:33:36;;;;;;;3.27;2.10;;;16.50;99.90;;;;;;934603;148;27290;-78
2022/10/17 03:36:06;;;;;;;2.55;2.05;;;16.50;99.90;;;;;;933048;149;27268;-80
2022/10/17 03:38:32;;;;;;;4.75;2.17;;;16.50;99.90;;;;;;935178;148;27379;-79
2022/10/17 03:40:59;;;;;;;5.12;2.35;;;16.50;99.90;;;;;;934505;151;27390;-78
2022/10/17 03:43:26;;;;;;;2.25;2.00;;;16.50;99.90;;;;;;936485;148;27401;-78
2022/10/17 03:45:52;;;;;;;2.10;1.90;;;16.40;99.90;;;;;;935680;151;27411;-78
2022/10/17 03:48:19;;;;;;;5.20;2.20;;;16.40;99.90;;;;;;936226;151;27355;-78
2022/10/17 03:50:45;;;;;;;2.17;1.98;;;16.50;99.90;;;;;;935699;151;27348;-79
2022/10/17 03:53:12;;;;;;;4.95;2.17;;;16.40;99.90;;;;;;934874;151;27366;-78
2022/10/17 03:55:39;;;;;;;4.80;2.20;;;16.40;99.90;;;;;;935585;149;27455;-78
2022/10/17 03:58:05;;;;;;;2.20;2.02;;;16.40;99.90;;;;;;935517;151;27892;-78
2022/10/17 04:00:32;;;;;;;1.90;1.80;;;16.40;99.90;;;;;;934680;148;27321;-78
2022/10/17 04:02:58;;;;;;;4.95;2.05;;;16.40;99.90;;;;;;934099;149;27324;-79
2022/10/17 04:05:25;;;;;;;2.40;2.20;;;16.30;99.90;;;;;;935186;149;27467;-79
2022/10/17 04:07:52;;;;;;;2.30;2.10;;;16.30;99.90;;;;;;933384;151;27474;-79
2022/10/17 04:10:18;;;;;;;2.77;2.30;;;16.30;99.90;;;;;;933867;151;27428;-79
2022/10/17 04:12:45;;;;;;;3.90;2.33;;;16.30;99.90;;;;;;934427;149;27339;-77
2022/10/17 04:15:11;;;;;;;3.85;2.20;;;16.20;99.90;;;;;;937066;150;27840;-81
2022/10/17 04:17:38;;;;;;;3.08;2.05;;;16.20;99.90;;;;;;936816;151;27456;-80
2022/10/17 04:20:05;;;;;;;2.30;2.10;;;16.20;99.90;;;;;;936686;151;27375;-77
2022/10/17 04:22:31;;;;;;;3.05;2.22;;;16.20;99.90;;;;;;937165;148;27317;-80
2022/10/17 04:24:58;;;;;;;2.70;2.37;;;16.20;99.90;;;;;;934967;151;27304;-80
2022/10/17 04:27:24;;;;;;;2.90;2.10;;;16.20;99.90;;;;;;936349;151;27286;-80
2022/10/17 04:29:51;;;;;;;4.30;2.30;;;16.20;99.90;;;;;;936743;149;27340;-80
2022/10/17 04:32:17;;;;;;;3.67;2.35;;;16.20;99.90;;;;;;935872;151;27462;-79
2022/10/17 04:34:44;;;;;;;2.72;2.30;;;16.20;99.90;;;;;;936456;148;27783;-79
2022/10/17 04:37:11;;;;;;;2.37;1.85;;;16.20;99.90;;;;;;935568;151;27360;-80
2022/10/17 04:39:37;;;;;;;2.90;2.30;;;16.20;99.90;;;;;;936019;151;27332;-80
2022/10/17 04:42:04;;;;;;;4.42;2.10;;;16.20;99.90;;;;;;933679;151;27355;-79
2022/10/17 04:44:32;;;;;;;3.80;2.12;;;16.20;99.90;;;;;;934566;148;27367;-81
2022/10/17 04:46:57;;;;;;;5.35;2.50;;;16.20;99.90;;;;;;934383;148;27539;-79
2022/10/17 04:49:24;;;;;;;4.40;2.10;;;16.20;99.90;;;;;;935657;151;27328;-79
2022/10/17 04:51:50;;;;;;;2.33;2.12;;;16.20;99.90;;;;;;935644;149;27295;-79
2022/10/17 04:54:17;;;;;;;3.42;2.17;;;16.20;99.90;;;;;;934137;149;27264;-79
2022/10/17 04:56:43;;;;;;;4.53;2.20;;;16.20;99.90;;;;;;935464;148;27317;-80
2022/10/17 04:59:10;;;;;;;2.27;2.08;;;16.20;99.90;;;;;;935397;149;27439;-79
2022/10/17 05:01:36;;;;;;;5.08;3.02;;;16.20;99.90;;;;;;937569;150;27877;-80
2022/10/17 05:04:03;;;;;;;5.03;2.75;;;16.30;99.90;;;;;;936414;148;27400;-79
2022/10/17 05:06:31;;;;;;;2.52;2.33;;;16.30;99.90;;;;;;936772;150;27728;-80
2022/10/17 05:08:56;;;;;;;3.12;2.10;;;16.30;99.90;;;;;;935014;148;27310;-79
2022/10/17 05:11:23;;;;;;;3.00;2.20;;;16.30;99.90;;;;;;936489;151;27741;-79
2022/10/17 05:13:55;;;;;;;2.02;1.90;;;16.40;99.90;;;;;;935323;151;27419;-79
2022/10/17 05:16:21;;;;;;;3.83;2.12;;;16.40;99.90;;;;;;938351;151;27310;-79
2022/10/17 05:18:49;;;;;;;2.70;2.02;;;16.40;99.90;;;;;;936854;151;27303;-80
2022/10/17 05:21:15;;;;;;;2.33;2.10;;;16.40;99.90;;;;;;934965;151;27491;-80
2022/10/17 05:23:41;;;;;;;2.27;2.08;;;16.40;99.90;;;;;;935818;151;27426;-79
2022/10/17 05:26:08;;;;;;;2.70;2.40;;;16.40;99.90;;;;;;935962;151;27239;-79
2022/10/17 05:28:34;;;;;;;4.50;2.37;;;16.40;99.90;;;;;;934801;149;27296;-79
2022/10/17 05:31:04;;;;;;;2.22;2.12;;;16.40;99.90;;;;;;934860;149;27347;-80
2022/10/17 05:33:31;;;;;;;2.27;1.98;;;16.40;99.90;;;;;;935553;149;27283;-80
2022/10/17 05:35:57;;;;;;;2.45;2.25;;;16.40;99.90;;;;;;934465;148;27341;-79
2022/10/17 05:38:24;;;;;;;2.42;2.22;;;16.40;99.90;;;;;;934853;149;27280;-79
2022/10/17 05:40:50;;;;;;;2.50;2.30;;;16.40;99.90;;;;;;935870;151;27256;-78
2022/10/17 05:43:17;;;;;;;2.50;2.30;;;16.40;99.90;;;;;;936219;148;27323;-79
2022/10/17 05:45:43;;;;;;;3.37;2.30;;;16.30;99.90;;;;;;935013;151;27370;-80
2022/10/17 05:48:10;;;;;;;2.98;2.20;;;16.30;99.90;;;;;;933736;151;27431;-79
2022/10/17 05:50:37;;;;;;;4.33;2.17;;;16.20;99.90;;;;;;936232;148;27792;-80
2022/10/17 05:53:03;;;;;;;2.55;1.90;;;16.20;99.90;;;;;;935703;151;27319;-79
2022/10/17 05:55:30;;;;;;;4.30;1.98;;;16.20;99.90;;;;;;935900;151;27419;-79
2022/10/17 05:57:57;;;;;;;2.87;2.20;;;16.20;99.90;;;;;;937720;149;27335;-78
2022/10/17 06:00:23;;;;;;;3.40;2.25;;;16.20;99.90;;;;;;936160;151;27360;-80
2022/10/17 06:02:50;;;;;;;2.60;2.15;;;16.20;99.90;;;;;;936862;151;27838;-78
2022/10/17 06:05:16;;;;;;;2.55;2.20;;;16.20;99.90;;;;;;935670;151;27428;-79
2022/10/17 06:07:43;;;;;;;2.10;1.90;;;16.10;99.90;;;;;;934352;148;27397;-79
2022/10/17 06:10:11;;;;;;;4.85;2.00;;;16.20;99.90;;;;;;935249;150;27346;-79
2022/10/17 06:12:36;;;;;;;4.05;2.00;;;16.20;99.90;;;;;;936060;151;27405;-80
2022/10/17 06:15:03;;;;;;;3.65;2.83;;;16.20;99.90;;;;;;934454;151;27468;-79
2022/10/17 06:17:29;;;;;;;2.95;2.35;;;16.30;99.90;;;;;;935118;151;27461;-79
2022/10/17 06:19:56;;;;;;;2.80;2.60;;;16.30;99.90;;;;;;932626;148;27345;-79
2022/10/17 06:22:22;;;;;;;4.35;2.45;;;16.40;99.90;;;;;;934258;149;27343;-79
2022/10/17 06:24:49;;;;;;;4.72;2.77;;;16.40;99.90;;;;;;930624;152;27413;-79
2022/10/17 06:27:15;;;;;;;3.27;2.45;;;16.50;99.90;;;;;;929800;152;27366;-80
2022/10/17 06:29:42;;;;;;;7.42;2.35;;;16.70;99.90;;;;;;928710;150;27866;-78
2022/10/17 06:32:09;;;;;;;2.30;2.10;;;16.90;99.90;;;;;;930203;152;27306;-80
2022/10/17 06:34:35;;;;;;;4.33;2.00;;;17.30;99.90;;;;;;929256;151;27780;-79
2022/10/17 06:37:02;;;;;;;3.47;2.02;;;17.60;99.90;;;;;;931818;151;27466;-78
2022/10/17 06:39:32;;;;;;;4.58;2.27;;;18.00;99.90;;;;;;930446;152;27335;-80
2022/10/17 06:41:55;;;;;;;2.22;2.05;;;18.40;99.90;;;;;;929386;149;27346;-79
2022/10/17 06:44:24;;;;;;;2.50;2.00;;;18.80;99.90;;;;;;932348;150;27372;-80
2022/10/17 06:46:48;;;;;;;4.70;2.75;;;19.30;99.90;;;;;;929780;152;27364;-79
2022/10/17 06:49:15;;;;;;;2.30;2.10;;;19.70;99.90;;;;;;931716;152;27394;-79
2022/10/17 06:51:41;;;;;;;2.05;1.85;;;20.20;99.90;;;;;;932516;152;27424;-81
2022/10/17 06:54:08;;;;;;;4.60;2.10;;;20.60;99.90;;;;;;932128;150;27437;-79
2022/10/17 06:56:35;;;;;;;2.30;1.92;;;21.10;99.90;;;;;;930604;151;27465;-79
2022/10/17 06:59:01;;;;;;;2.02;1.65;;;21.60;99.90;;;;;;929969;152;27298;-79
2022/10/17 07:01:28;;;;;;;2.10;1.90;;;22.00;99.90;;;;;;932154;150;27371;-79
2022/10/17 07:03:54;;;;;;;3.05;2.10;;;22.40;99.90;;;;;;930597;149;27356;-79
2022/10/17 07:06:23;;;;;;;1.92;1.82;;;22.80;99.90;;;;;;930766;149;27473;-79
2022/10/17 07:08:49;;;;;;;2.47;1.75;;;23.20;99.90;;;;;;930595;152;27381;-79
2022/10/17 07:11:14;;;;;;;1.80;1.70;;;23.60;99.90;;;;;;931173;152;28093;-80
2022/10/17 07:13:41;;;;;;;3.35;2.02;;;24.00;99.90;;;;;;929554;152;27344;-80
2022/10/17 07:16:07;;;;;;;2.00;1.90;;;24.30;99.90;;;;;;931957;149;27421;-81
2022/10/17 07:18:34;;;;;;;3.92;1.75;;;24.70;99.90;;;;;;932808;150;27333;-81
2022/10/17 07:21:00;;;;;;;3.55;1.70;;;25.00;99.10;;;;;;930547;152;27349;-80
2022/10/17 07:23:27;;;;;;;2.52;1.30;;;25.30;97.60;;;;;;934909;151;28375;-80
2022/10/17 07:25:54;;;;;;;2.08;1.45;;;25.70;96.80;;;;;;937056;148;27391;-80
2022/10/17 07:28:20;;;;;;;4.67;1.52;;;26.00;96.10;;;;;;935515;149;27332;-80
2022/10/17 07:30:47;;;;;;;1.77;1.67;;;26.30;94.40;;;;;;934634;150;27254;-80
2022/10/17 07:33:13;;;;;;;3.05;1.67;;;26.60;93.30;;;;;;936595;151;27380;-81
2022/10/17 07:35:40;;;;;;;2.60;1.70;;;27.00;92.10;;;;;;934132;148;27432;-80
2022/10/17 07:38:07;;;;;;;1.80;1.70;;;27.30;90.60;;;;;;935295;148;27317;-81
2022/10/17 07:40:33;;;;;;;4.45;1.72;;;27.50;89.10;;;;;;936057;148;27315;-80
2022/10/17 07:43:00;;;;;;;4.40;2.00;;;27.70;86.80;;;;;;935742;151;27382;-80
2022/10/17 07:45:26;;;;;;;2.92;1.40;;;28.00;86.30;;;;;;935441;149;27364;-81
2022/10/17 07:47:59;;;;;;;1.75;1.65;;;28.20;85.20;;;;;;934786;151;27428;-80
2022/10/17 07:50:26;;;;;;;4.10;1.70;;;28.50;83.70;;;;;;936633;151;27260;-81
2022/10/17 07:52:52;;;;;;;1.85;1.75;;;28.80;82.80;;;;;;935295;151;27379;-81
2022/10/17 07:55:19;;;;;;;3.40;1.60;;;29.00;81.70;;;;;;936433;149;27407;-81
2022/10/17 07:57:45;;;;;;;1.60;1.42;;;29.30;80.90;;;;;;934476;148;27307;-81
2022/10/17 08:00:12;;;;;;;1.92;1.67;;;29.50;79.20;;;;;;935446;148;27346;-81
2022/10/17 08:02:39;;;;;;;1.70;1.57;;;29.80;77.10;;;;;;937335;150;27423;-81
2022/10/17 08:05:05;;;;;;;4.87;1.50;;;30.00;75.90;;;;;;937139;148;27340;-81
2022/10/17 08:07:32;;;;;;;1.55;1.45;;;30.20;75.20;;;;;;936824;150;27273;-81
2022/10/17 08:09:58;;;;;;;1.82;1.62;;;30.40;74.40;;;;;;935195;150;27408;-81
2022/10/17 08:12:25;;;;;;;3.00;1.50;;;30.60;73.50;;;;;;936218;149;27358;-81
2022/10/17 08:14:52;;;;;;;2.65;1.45;;;30.90;72.50;;;;;;934351;149;26356;-81
2022/10/17 08:17:18;;;;;;;2.65;1.70;;;31.00;71.50;;;;;;937004;150;26307;-81
2022/10/17 08:19:45;;;;;;;1.35;1.25;;;31.20;70.70;;;;;;936858;150;27360;-81
2022/10/17 08:22:11;;;;;;;1.50;1.40;;;31.40;69.80;;;;;;934842;151;27317;-82
2022/10/17 08:24:38;;;;;;;1.40;1.30;;;31.60;69.20;;;;;;928612;150;27446;-82
2022/10/17 08:27:10;;;;;;;2.12;1.17;;;31.70;68.80;;;;;;929257;150;27502;-82
2022/10/17 08:29:31;;;;;;;1.72;1.37;;;31.80;67.80;;;;;;930700;152;28698;-82
2022/10/17 08:31:58;;;;;;;2.17;1.40;;;31.80;66.80;;;;;;930154;149;27421;-81
2022/10/17 08:34:24;;;;;;;2.20;1.22;;;31.90;66.40;;;;;;929981;152;27321;-82
2022/10/17 08:36:51;;;;;;;2.47;1.62;;;31.90;65.90;;;;;;931841;152;27394;-82
2022/10/17 08:39:17;;;;;;;3.58;1.45;;;31.90;65.60;;;;;;929383;152;27368;-81
2022/10/17 08:42:11;;;;;;;10.88;1.70;;;31.90;65.20;;;;;;930364;152;27336;-81
2022/10/17 08:44:44;;;;;;;5.30;1.70;;;31.90;64.90;;;;;;932048;149;27363;-81
2022/10/17 08:47:11;;;;;;;1.82;1.37;;;31.90;65.40;;;;;;931672;152;27430;-81
2022/10/17 08:49:47;;;;;;;3.50;1.75;;;31.90;64.90;;;;;;930930;149;27330;-81
2022/10/17 08:52:22;;;;;;;3.62;1.40;;;31.80;64.00;;;;;;930460;151;27428;-81
2022/10/17 08:54:48;;;;;;;2.65;1.62;;;31.70;63.30;;;;;;930464;151;27461;-81
2022/10/17 08:57:15;;;;;;;1.90;1.20;;;31.50;63.10;;;;;;929321;152;27364;-81
2022/10/17 08:59:44;;;;;;;1.50;1.40;;;31.40;63.00;;;;;;930264;152;27374;-81
2022/10/17 09:02:13;;;;;;;2.67;1.47;;;31.20;62.40;;;;;;930324;151;27402;-81
2022/10/17 09:04:40;;;;;;;3.08;1.35;;;31.10;63.20;;;;;;929144;150;27329;-81
2022/10/17 09:07:09;;;;;;;2.02;1.52;;;31.00;62.90;;;;;;929801;149;27430;-80
2022/10/17 09:09:55;;;;;;;1.50;1.40;;;30.90;62.50;;;;;;932865;149;27804;-80
2022/10/17 09:12:27;;;;;;;3.42;1.37;;;30.70;62.50;;;;;;917297;152;27395;-80
2022/10/17 09:15:04;;;;;;;1.52;1.40;;;30.50;62.80;;;;;;929827;151;27346;-80
2022/10/17 09:17:38;;;;;;;2.15;1.70;;;30.30;62.80;;;;;;929652;151;27876;-80
2022/10/17 09:20:08;;;;;;;2.33;1.50;;;30.20;63.30;;;;;;929408;152;27456;-80
2022/10/17 09:22:34;;;;;;;2.45;1.40;;;30.00;63.50;;;;;;930038;149;27336;-80
2022/10/17 09:25:02;;;;;;;1.57;1.45;;;29.90;63.50;;;;;;935808;151;27769;-81
2022/10/17 09:27:33;;;;;;;1.52;1.40;;;29.90;63.80;;;;;;935879;149;27394;-81
2022/10/17 09:30:15;;;;;;;2.75;1.37;;;29.80;63.90;;;;;;934707;151;27379;-80
2022/10/17 09:32:42;;;;;;;1.20;1.15;;;29.80;64.00;;;;;;936333;148;28716;-80
2022/10/17 09:35:08;;;;;;;1.90;1.37;;;29.70;63.60;;;;;;936044;148;27378;-81
2022/10/17 09:37:35;;;;;;;1.40;1.30;;;29.60;63.40;;;;;;933262;151;27368;-80
2022/10/17 09:40:01;;;;;;;4.90;1.70;;;29.50;63.20;;;;;;935585;148;27413;-80
2022/10/17 09:42:28;;;;;;;2.27;1.62;;;29.40;63.00;;;;;;935893;150;27380;-81
2022/10/17 09:45:00;;;;;;;4.83;1.47;;;29.20;63.10;;;;;;934078;151;27351;-81
2022/10/17 09:47:42;;;;;;;1.70;1.60;;;29.10;63.20;;;;;;936889;149;27474;-80
2022/10/17 09:50:08;;;;;;;2.85;1.60;;;29.00;63.30;;;;;;937268;149;27341;-81
2022/10/17 09:52:37;;;;;;;3.05;1.60;;;28.90;63.50;;;;;;934237;151;27305;-81
2022/10/17 09:55:06;;;;;;;2.30;1.60;;;28.80;63.60;;;;;;936434;149;27467;-81
2022/10/17 09:57:51;;;;;;;2.08;1.42;;;28.60;63.80;;;;;;934280;151;27258;-81
2022/10/17 10:00:23;;;;;;;1.50;1.40;;;28.50;64.20;;;;;;933957;149;27340;-81
2022/10/17 10:02:50;;;;;;;2.12;1.40;;;28.50;64.60;;;;;;935709;150;27354;-81
2022/10/17 10:05:20;;;;;;;1.92;1.40;;;28.40;64.40;;;;;;935419;148;28586;-81
2022/10/17 10:07:46;;;;;;;2.92;1.67;;;28.40;64.30;;;;;;934912;149;27359;-81
2022/10/17 10:10:24;;;;;;;1.77;1.67;;;28.30;64.20;;;;;;931821;149;27439;-81
2022/10/17 10:13:03;;;;;;;3.10;1.90;;;28.30;64.30;;;;;;933850;150;27354;-82
2022/10/17 10:15:30;;;;;;;2.67;1.47;;;28.20;64.40;;;;;;934689;149;27376;-81
2022/10/17 10:17:56;;;;;;;1.92;1.82;;;28.20;64.50;;;;;;935413;151;27303;-81
2022/10/17 10:20:28;;;;;;;2.40;1.57;;;28.10;64.50;;;;;;935536;148;27277;-81
2022/10/17 10:23:04;;;;;;;1.52;1.30;;;28.00;65.00;;;;;;933994;151;27313;-81
2022/10/17 10:25:30;;;;;;;2.62;1.55;;;27.90;64.90;;;;;;931988;149;27393;-81
2022/10/17 10:27:57;;;;;;;1.75;1.50;;;27.90;65.70;;;;;;930776;149;27420;-81
2022/10/17 10:30:29;;;;;;;3.65;1.70;;;27.80;64.90;;;;;;930905;149;27271;-81
2022/10/17 10:32:56;;;;;;;1.85;1.65;;;27.70;65.00;;;;;;932308;150;27869;-81
2022/10/17 10:35:22;;;;;;;5.45;1.67;;;27.70;65.30;;;;;;930480;152;27308;-81
2022/10/17 10:37:49;;;;;;;2.30;1.50;;;27.60;65.50;;;;;;933222;149;27350;-81
2022/10/17 10:40:22;;;;;;;3.47;1.65;;;27.50;65.60;;;;;;931113;152;27440;-81
2022/10/17 10:42:49;;;;;;;2.25;1.72;;;27.40;65.60;;;;;;931179;149;27320;-81
2022/10/17 10:45:24;;;;;;;2.35;2.15;;;27.40;65.70;;;;;;931991;151;27337;-82
2022/10/17 10:47:51;;;;;;;1.87;1.65;;;27.30;65.70;;;;;;929884;150;27377;-82
2022/10/17 10:50:26;;;;;;;1.87;1.70;;;27.20;65.80;;;;;;932327;147;27453;-82
2022/10/17 10:52:58;;;;;;;1.50;1.40;;;27.10;66.30;;;;;;932779;149;28284;-82
2022/10/17 10:55:36;;;;;;;3.52;1.75;;;27.00;66.40;;;;;;934313;144;27788;-82
2022/10/17 10:58:03;;;;;;;1.70;1.60;;;27.00;66.60;;;;;;917151;148;27387;-82
2022/10/17 11:00:29;;;;;;;1.92;1.82;;;26.90;67.00;;;;;;929234;149;27455;-82
2022/10/17 11:02:56;;;;;;;3.47;2.22;;;26.90;67.30;;;;;;931582;150;27363;-82
2022/10/17 11:05:23;;;;;;;1.70;1.57;;;26.80;67.30;;;;;;929454;151;27322;-82
2022/10/17 11:07:58;;;;;;;2.30;1.50;;;26.80;67.80;;;;;;931167;151;27304;-85
2022/10/17 11:10:31;;;;;;;1.45;1.35;;;26.80;68.10;;;;;;930474;150;27397;-82
2022/10/17 11:13:00;;;;;;;3.02;1.52;;;26.80;68.40;;;;;;931413;149;27331;-83
2022/10/17 11:15:26;;;;;;;2.75;1.52;;;26.90;68.30;;;;;;930268;150;27333;-83
2022/10/17 11:18:08;;;;;;;2.12;1.72;;;26.90;68.40;;;;;;932389;152;27863;-83
2022/10/17 11:20:40;;;;;;;3.90;1.50;;;27.00;68.40;;;;;;928596;149;27329;-82
2022/10/17 11:23:19;;;;;;;3.35;1.45;;;27.00;68.40;;;;;;931161;150;27368;-82
2022/10/17 11:25:42;;;;;;;1.70;1.52;;;27.00;68.20;;;;;;931112;150;27363;-82
2022/10/17 11:28:15;;;;;;;3.25;1.55;;;27.10;68.10;;;;;;932935;149;27386;-82
2022/10/17 11:30:47;;;;;;;3.00;1.52;;;27.10;67.50;;;;;;930494;150;27308;-82
2022/10/17 11:33:14;;;;;;;1.45;1.35;;;27.20;67.40;;;;;;931944;149;27369;-83
2022/10/17 11:35:40;;;;;;;1.62;1.52;;;27.20;67.10;;;;;;930308;149;27440;-83
2022/10/17 11:38:28;;;;;;;1.80;1.70;;;27.30;67.40;;;;;;930639;152;27316;-82
2022/10/17 11:40:55;;;;;;;2.12;1.57;;;27.40;67.30;;;;;;931266;149;27335;-82
2022/10/17 11:43:21;;;;;;;2.05;1.40;;;27.40;67.60;;;;;;929617;150;27322;-83
2022/10/17 11:45:48;;;;;;;2.80;1.57;;;27.40;67.30;;;;;;929756;151;27329;-83
2022/10/17 11:48:23;;;;;;;3.92;1.60;;;27.50;67.30;;;;;;930612;150;27428;-83
2022/10/17 11:50:56;;;;;;;5.33;1.80;;;27.50;67.10;;;;;;924275;149;27317;-82
2022/10/17 11:53:22;;;;;;;2.12;1.70;;;27.50;66.80;;;;;;925206;152;27305;-82
2022/10/17 11:55:49;;;;;;;1.82;1.62;;;27.50;66.60;;;;;;930176;149;27325;-82
2022/10/17 11:58:18;;;;;;;2.45;1.30;;;27.60;66.20;;;;;;930976;149;27358;-82
2022/10/17 12:00:51;;;;;;;3.30;1.70;;;27.60;65.70;;;;;;931986;150;27484;-82
2022/10/17 12:03:39;;;;;;;1.95;1.42;;;27.60;65.50;;;;;;930923;150;27427;-82
2022/10/17 12:06:17;;;;;;;1.27;1.17;;;27.70;64.90;;;;;;931070;149;27467;-82
2022/10/17 12:08:49;;;;;;;4.08;1.45;;;27.70;64.60;;;;;;931918;149;27449;-82
2022/10/17 12:11:34;;;;;;;3.77;1.62;;;27.70;64.30;;;;;;931601;149;27505;-82
2022/10/17 12:14:00;;;;;;;2.45;1.30;;;27.70;63.70;;;;;;930975;149;27430;-82
2022/10/17 12:16:33;;;;;;;2.10;1.20;;;27.70;63.20;;;;;;932599;149;27793;-82
2022/10/17 12:19:05;;;;;;;3.47;1.32;;;27.70;62.80;;;;;;931278;151;27302;-82
2022/10/17 12:21:29;;;;;;;3.92;1.60;;;27.70;62.80;;;;;;930095;151;27334;-82
2022/10/17 12:23:56;;;;;;;2.10;1.45;;;27.70;62.50;;;;;;927507;152;27347;-82
2022/10/17 12:26:28;;;;;;;2.58;1.20;;;27.70;62.30;;;;;;932908;149;28346;-82
2022/10/17 12:28:54;;;;;;;3.42;1.62;;;27.70;62.40;;;;;;930121;152;27411;-82
2022/10/17 12:31:22;;;;;;;1.45;1.27;;;27.70;62.50;;;;;;932234;151;28135;-82
2022/10/17 12:33:50;;;;;;;1.98;1.50;;;27.70;62.30;;;;;;929457;151;27415;-82
2022/10/17 12:36:26;;;;;;;2.25;1.30;;;27.70;62.50;;;;;;929492;149;27342;-82
2022/10/17 12:39:01;;;;;;;2.33;1.40;;;27.70;62.30;;;;;;928970;149;27332;-82
2022/10/17 12:41:41;;;;;;;2.47;1.47;;;27.70;62.10;;;;;;932361;149;27842;-82
2022/10/17 12:44:12;;;;;;;2.22;1.27;;;27.70;62.00;;;;;;929439;149;27487;-82
2022/10/17 12:46:45;;;;;;;3.80;1.32;;;27.60;62.10;;;;;;929687;150;27365;-82
2022/10/17 12:49:23;;;;;;;1.50;1.40;;;27.60;61.40;;;;;;929303;152;27283;-82
2022/10/17 12:52:21;;;;;;;4.15;1.50;;;27.60;61.50;;;;;;931393;151;27452;-82
2022/10/17 12:55:03;;;;;;;2.20;1.40;;;27.60;61.40;;;;;;927875;152;27328;-82